createdAt,value
2022-11-05T00:00:07.858Z,18.70
2022-11-05T00:03:03.100Z,17.88
2022-11-05T00:05:49.752Z,20.23
2022-11-05T00:08:35.465Z,20.20
2022-11-05T00:11:03.511Z,21.60
2022-11-05T00:13:49.121Z,19.45
2022-11-05T00:16:34.316Z,19.85
2022-11-05T00:19:10.337Z,22.10
2022-11-05T00:21:57.640Z,21.30
2022-11-05T00:24:44.057Z,21.00
2022-11-05T00:27:12.719Z,20.55
2022-11-05T00:29:40.861Z,21.55
2022-11-05T00:32:08.786Z,20.75
2022-11-05T00:34:38.060Z,21.20
2022-11-05T00:37:06.100Z,21.42
2022-11-05T00:39:34.164Z,21.20
2022-11-05T00:42:19.712Z,20.83
2022-11-05T00:45:02.516Z,20.48
2022-11-05T00:47:48.533Z,19.83
2022-11-05T00:50:18.842Z,19.98
2022-11-05T00:52:56.868Z,20.63
2022-11-05T00:55:25.581Z,21.38
2022-11-05T00:57:53.533Z,20.33
2022-11-05T01:00:21.732Z,20.08
2022-11-05T01:02:49.848Z,19.20
2022-11-05T01:05:19.752Z,19.08
2022-11-05T01:07:47.688Z,19.67
2022-11-05T01:10:15.896Z,19.45
2022-11-05T01:12:43.783Z,18.33
2022-11-05T01:15:11.933Z,18.52
2022-11-05T01:17:39.872Z,19.25
2022-11-05T01:20:08.424Z,20.70
2022-11-05T01:22:37.759Z,20.38
2022-11-05T01:25:07.412Z,21.50
2022-11-05T01:27:36.542Z,21.00
2022-11-05T01:30:06.217Z,20.15
2022-11-05T01:32:35.580Z,20.15
2022-11-05T01:35:03.917Z,20.20
2022-11-05T01:37:31.786Z,21.65
2022-11-05T01:40:01.086Z,21.27
2022-11-05T01:42:29.948Z,22.40
2022-11-05T01:45:05.199Z,21.85
2022-11-05T01:47:42.916Z,24.63
2022-11-05T01:50:34.902Z,28.23
2022-11-05T01:53:11.717Z,40.00
2022-11-05T01:55:45.489Z,49.92
2022-11-05T01:58:17.843Z,51.63
2022-11-05T02:00:46.076Z,55.40
2022-11-05T02:03:17.631Z,60.13
2022-11-05T02:05:46.679Z,68.43
2022-11-05T02:08:28.554Z,73.85
2022-11-05T02:10:58.796Z,80.28
2022-11-05T02:13:26.773Z,83.97
2022-11-05T02:16:04.651Z,88.72
2022-11-05T02:18:45.233Z,89.10
2022-11-05T02:21:35.588Z,90.00
2022-11-05T02:24:36.780Z,84.80
2022-11-05T02:27:55.858Z,84.90
2022-11-05T02:30:47.701Z,82.95
2022-11-05T02:33:28.172Z,82.43
2022-11-05T02:36:14.080Z,81.82
2022-11-05T02:39:02.284Z,82.72
2022-11-05T02:41:36.745Z,78.82
2022-11-05T02:44:16.810Z,80.90
2022-11-05T02:46:55.343Z,80.80
2022-11-05T02:49:33.501Z,82.00
2022-11-05T02:52:06.395Z,82.45
2022-11-05T02:54:38.109Z,83.65
2022-11-05T02:57:06.912Z,89.35
2022-11-05T02:59:34.772Z,89.75
2022-11-05T03:02:05.338Z,99.60
2022-11-05T03:04:33.796Z,97.60
2022-11-05T03:07:14.563Z,100.43
2022-11-05T03:10:09.435Z,98.63
2022-11-05T03:12:46.373Z,100.15
2022-11-05T03:15:26.412Z,96.43
2022-11-05T03:18:06.463Z,96.93
2022-11-05T03:20:38.340Z,94.80
2022-11-05T03:23:13.642Z,90.97
2022-11-05T03:25:48.425Z,85.80
2022-11-05T03:28:18.591Z,79.03
2022-11-05T03:30:46.976Z,76.18
2022-11-05T03:33:20.349Z,67.30
2022-11-05T03:35:52.999Z,63.42
2022-11-05T03:38:25.887Z,58.60
2022-11-05T03:40:57.100Z,57.60
2022-11-05T03:43:30.665Z,52.58
2022-11-05T03:46:03.035Z,45.97
2022-11-05T03:48:35.687Z,43.28
2022-11-05T03:51:09.780Z,39.65
2022-11-05T03:53:43.895Z,37.92
2022-11-05T03:56:16.370Z,34.17
2022-11-05T04:01:13.415Z,37.85
2022-11-05T04:03:42.650Z,33.30
2022-11-05T04:06:29.531Z,32.10
2022-11-05T04:09:15.209Z,29.25
2022-11-05T04:12:00.786Z,33.10
2022-11-05T04:14:28.730Z,31.30
2022-11-05T04:17:08.845Z,33.30
2022-11-05T04:19:57.528Z,29.80
2022-11-05T04:22:45.047Z,28.23
2022-11-05T04:25:14.008Z,26.58
2022-11-05T04:27:42.281Z,26.83
2022-11-05T04:30:19.496Z,27.75
2022-11-05T04:33:01.706Z,26.58
2022-11-05T04:35:33.484Z,27.85
2022-11-05T04:38:02.087Z,26.33
2022-11-05T04:40:30.402Z,28.67
2022-11-05T04:42:58.883Z,28.83
2022-11-05T04:45:28.859Z,28.35
2022-11-05T04:47:56.897Z,31.25
2022-11-05T04:50:25.344Z,31.88
2022-11-05T04:52:54.623Z,34.20
2022-11-05T04:55:22.836Z,37.95
2022-11-05T04:57:52.012Z,41.15
2022-11-05T05:00:21.096Z,40.50
2022-11-05T05:02:49.116Z,40.13
2022-11-05T05:05:17.138Z,43.10
2022-11-05T05:07:45.153Z,45.00
2022-11-05T05:10:14.867Z,43.20
2022-11-05T05:12:43.135Z,43.08
2022-11-05T05:15:11.204Z,44.17
2022-11-05T05:17:39.357Z,45.72
2022-11-05T05:20:25.732Z,49.05
2022-11-05T05:22:54.623Z,44.78
2022-11-05T05:25:24.426Z,46.20
2022-11-05T05:27:52.576Z,45.40
2022-11-05T05:30:20.449Z,46.60
2022-11-05T05:32:48.395Z,44.97
2022-11-05T05:35:16.563Z,44.85
2022-11-05T05:37:44.885Z,47.78
2022-11-05T05:40:13.071Z,47.17
2022-11-05T05:42:43.516Z,45.65
2022-11-05T05:45:12.852Z,50.42
2022-11-05T05:47:40.854Z,50.63
2022-11-05T05:50:09.500Z,52.17
2022-11-05T05:52:37.497Z,56.20
2022-11-05T05:55:05.933Z,53.83
2022-11-05T05:57:34.759Z,52.95
2022-11-05T06:00:04.963Z,56.47
2022-11-05T06:02:33.198Z,60.97
2022-11-05T06:05:01.453Z,68.28
2022-11-05T06:07:33.107Z,70.97
2022-11-05T06:10:06.681Z,72.20
2022-11-05T06:12:34.676Z,69.85
2022-11-05T06:15:05.018Z,67.72
2022-11-05T06:17:34.327Z,69.82
2022-11-05T06:20:02.333Z,71.18
2022-11-05T06:22:30.648Z,72.45
2022-11-05T06:24:58.582Z,75.60
2022-11-05T06:27:26.702Z,81.18
2022-11-05T06:29:54.673Z,73.07
2022-11-05T06:32:24.137Z,74.90
2022-11-05T06:34:52.100Z,73.13
2022-11-05T06:37:20.032Z,76.00
2022-11-05T06:39:48.316Z,77.82
2022-11-05T06:42:19.099Z,81.78
2022-11-05T06:44:47.803Z,81.30
2022-11-05T06:47:15.933Z,77.97
2022-11-05T06:49:45.628Z,77.80
2022-11-05T06:52:14.342Z,77.07
2022-11-05T06:54:44.027Z,69.57
2022-11-05T06:57:13.524Z,70.47
2022-11-05T06:59:41.639Z,70.60
2022-11-05T07:02:12.863Z,74.30
2022-11-05T07:04:40.953Z,72.47
2022-11-05T07:07:10.258Z,72.38
2022-11-05T07:09:40.522Z,76.28
2022-11-05T07:12:08.902Z,76.18
2022-11-05T07:14:36.777Z,73.93
2022-11-05T07:17:04.745Z,75.78
2022-11-05T07:19:32.603Z,79.30
2022-11-05T07:22:00.498Z,81.63
2022-11-05T07:24:29.694Z,82.32
2022-11-05T07:26:57.548Z,81.10
2022-11-05T07:29:25.781Z,91.35
2022-11-05T07:31:53.632Z,98.32
2022-11-05T07:34:21.650Z,101.60
2022-11-05T07:36:49.568Z,106.25
2022-11-05T07:39:17.422Z,116.57
2022-11-05T07:41:46.651Z,118.82
2022-11-05T07:44:14.520Z,118.93
2022-11-05T07:46:42.765Z,120.82
2022-11-05T07:49:10.723Z,122.13
2022-11-05T07:51:38.577Z,124.85
2022-11-05T07:54:06.515Z,123.03
2022-11-05T07:56:34.513Z,121.47
2022-11-05T07:59:03.832Z,126.15
2022-11-05T08:01:31.906Z,126.20
2022-11-05T08:03:59.939Z,122.35
2022-11-05T08:06:27.799Z,129.57
2022-11-05T08:08:55.880Z,128.73
2022-11-05T08:11:23.763Z,129.88
2022-11-05T08:13:51.663Z,128.13
2022-11-05T08:16:20.954Z,125.82
2022-11-05T08:18:48.816Z,130.18
2022-11-05T08:21:16.756Z,126.63
2022-11-05T08:23:45.258Z,128.32
2022-11-05T08:26:13.187Z,127.13
2022-11-05T08:28:41.196Z,127.65
2022-11-05T08:31:09.088Z,131.05
2022-11-05T08:33:38.336Z,132.20
2022-11-05T08:36:06.861Z,130.05
2022-11-05T08:38:34.752Z,126.88
2022-11-05T08:41:02.655Z,133.57
2022-11-05T08:43:30.529Z,134.60
2022-11-05T08:46:00.573Z,137.68
2022-11-05T08:48:28.671Z,135.77
2022-11-05T08:51:00.858Z,132.80
2022-11-05T08:53:28.944Z,137.95
2022-11-05T08:56:00.606Z,137.43
2022-11-05T08:58:29.217Z,134.15
2022-11-05T09:01:03.505Z,134.48
2022-11-05T09:03:32.823Z,133.60
2022-11-05T09:06:02.135Z,131.95
2022-11-05T09:08:30.179Z,136.13
2022-11-05T09:10:58.085Z,136.43
2022-11-05T09:13:26.697Z,126.22
2022-11-05T09:15:55.026Z,136.77
2022-11-05T09:18:22.957Z,132.70
2022-11-05T09:20:50.881Z,135.95
2022-11-05T09:23:20.203Z,130.45
2022-11-05T09:25:48.593Z,128.02
2022-11-05T09:28:18.174Z,120.05
2022-11-05T09:30:48.460Z,121.20
2022-11-05T09:33:17.486Z,117.47
2022-11-05T09:35:45.717Z,112.47
2022-11-05T09:38:13.701Z,106.30
2022-11-05T09:40:48.668Z,103.45
2022-11-05T09:43:21.444Z,65.57
2022-11-05T09:45:54.116Z,62.58
2022-11-05T09:48:25.852Z,59.15
2022-11-05T09:50:55.357Z,30.05
2022-11-05T09:53:24.889Z,16.17
2022-11-05T09:55:57.293Z,19.23
2022-11-05T10:00:58.277Z,24.95
2022-11-05T10:03:29.601Z,18.38
2022-11-05T10:06:07.156Z,15.77
2022-11-05T10:08:41.116Z,16.65
2022-11-05T10:11:15.432Z,16.95
2022-11-05T10:13:47.246Z,17.05
2022-11-05T10:16:24.735Z,12.20
2022-11-05T10:18:58.059Z,13.02
2022-11-05T10:21:51.348Z,10.27
2022-11-05T10:24:16.899Z,16.25
2022-11-05T10:26:50.389Z,14.57
2022-11-05T10:29:26.032Z,11.18
2022-11-05T10:31:56.085Z,17.88
2022-11-05T10:34:28.171Z,15.05
2022-11-05T10:36:56.204Z,16.27
2022-11-05T10:39:27.587Z,14.60
2022-11-05T10:42:18.122Z,11.50
2022-11-05T10:44:52.256Z,10.68
2022-11-05T10:47:39.038Z,10.77
2022-11-05T10:50:12.697Z,8.05
2022-11-05T10:52:46.454Z,10.63
2022-11-05T10:55:19.653Z,9.90
2022-11-05T10:57:49.736Z,7.03
2022-11-05T11:00:23.480Z,9.50
2022-11-05T11:02:53.082Z,7.22
2022-11-05T11:05:23.631Z,6.70
2022-11-05T11:07:58.152Z,7.15
2022-11-05T11:10:27.029Z,7.40
2022-11-05T11:12:57.699Z,5.50
2022-11-05T11:15:28.397Z,6.85
2022-11-05T11:17:57.419Z,8.27
2022-11-05T11:20:28.792Z,9.43
2022-11-05T11:23:06.555Z,4.97
2022-11-05T11:25:40.556Z,5.03
2022-11-05T11:28:18.373Z,5.93
2022-11-05T11:30:55.096Z,7.28
2022-11-05T11:33:27.469Z,6.32
2022-11-05T11:38:24.559Z,6.75
2022-11-05T11:41:00.871Z,6.55
2022-11-05T11:43:34.779Z,5.63
2022-11-05T11:46:07.794Z,5.78
2022-11-05T11:48:41.147Z,6.28
2022-11-05T11:51:20.411Z,9.35
2022-11-05T11:53:50.486Z,6.63
2022-11-05T11:56:21.166Z,6.78
2022-11-05T11:58:52.253Z,10.18
2022-11-05T12:01:51.106Z,8.70
2022-11-05T12:04:55.042Z,9.88
2022-11-05T12:07:36.367Z,8.75
2022-11-05T12:10:24.836Z,7.82
2022-11-05T12:13:21.276Z,8.82
2022-11-05T12:15:53.439Z,8.10
2022-11-05T12:18:29.857Z,8.18
2022-11-05T12:21:07.239Z,8.18
2022-11-05T12:23:59.986Z,7.82
2022-11-05T12:29:20.970Z,7.85
2022-11-05T12:32:02.570Z,6.85
2022-11-05T12:34:47.507Z,8.90
2022-11-05T12:37:25.617Z,9.88
2022-11-05T12:40:11.986Z,6.15
2022-11-05T12:42:55.330Z,7.95
2022-11-05T12:45:34.486Z,8.80
2022-11-05T12:48:19.232Z,6.18
2022-11-05T12:50:53.013Z,8.38
2022-11-05T12:53:39.340Z,9.68
2022-11-05T12:56:14.245Z,8.55
2022-11-05T12:58:45.766Z,8.10
2022-11-05T13:01:18.953Z,7.97
2022-11-05T13:03:52.857Z,11.18
2022-11-05T13:06:24.826Z,7.88
2022-11-05T13:08:59.555Z,8.18
2022-11-05T13:11:30.949Z,8.23
2022-11-05T13:14:06.996Z,7.13
2022-11-05T13:16:38.973Z,9.93
2022-11-05T13:19:22.548Z,9.30
2022-11-05T13:21:54.918Z,7.70
2022-11-05T13:26:57.221Z,7.82
2022-11-05T13:29:32.273Z,9.20
2022-11-05T13:32:05.709Z,8.30
2022-11-05T13:34:37.787Z,7.00
2022-11-05T13:37:25.673Z,7.68
2022-11-05T13:39:57.126Z,7.47
2022-11-05T13:42:59.967Z,7.15
2022-11-05T13:45:48.379Z,7.10
2022-11-05T13:48:45.477Z,11.77
2022-11-05T13:51:48.841Z,7.93
2022-11-05T13:54:54.415Z,8.38
2022-11-05T13:57:39.011Z,9.93
2022-11-05T14:00:16.582Z,7.00
2022-11-05T14:02:48.700Z,8.00
2022-11-05T14:05:30.573Z,8.82
2022-11-05T14:08:00.165Z,9.27
2022-11-05T14:10:37.936Z,6.70
2022-11-05T14:13:21.900Z,9.90
2022-11-05T14:16:01.320Z,10.27
2022-11-05T14:18:47.872Z,10.18
2022-11-05T14:21:46.571Z,6.85
2022-11-05T14:24:28.610Z,10.48
2022-11-05T14:27:41.406Z,10.57
2022-11-05T14:30:43.663Z,7.80
2022-11-05T14:33:18.582Z,8.73
2022-11-05T14:35:46.544Z,7.75
2022-11-05T14:38:22.232Z,11.55
2022-11-05T14:40:50.740Z,11.70
2022-11-05T14:43:26.690Z,7.40
2022-11-05T14:45:57.756Z,11.65
2022-11-05T14:48:35.301Z,9.30
2022-11-05T14:51:03.596Z,9.38
2022-11-05T14:53:35.714Z,11.57
2022-11-05T14:56:06.408Z,11.98
2022-11-05T14:58:37.402Z,9.07
2022-11-05T15:01:07.871Z,7.70
2022-11-05T15:04:03.831Z,12.13
2022-11-05T15:06:34.640Z,8.38
2022-11-05T15:09:18.399Z,15.00
2022-11-05T15:12:10.597Z,12.82
2022-11-05T15:14:48.089Z,11.32
2022-11-05T15:17:20.584Z,10.52
2022-11-05T15:22:26.909Z,14.38
2022-11-05T15:24:55.561Z,11.98
2022-11-05T15:27:38.581Z,14.00
2022-11-05T15:30:15.935Z,15.60
2022-11-05T15:32:45.290Z,13.60
2022-11-05T15:35:23.404Z,12.30
2022-11-05T15:37:57.336Z,14.13
2022-11-05T15:40:31.131Z,16.65
2022-11-05T15:43:19.497Z,16.85
2022-11-05T15:46:01.515Z,15.32
2022-11-05T15:48:29.441Z,15.45
2022-11-05T15:50:57.508Z,16.15
2022-11-05T15:56:27.054Z,14.93
2022-11-05T15:58:59.632Z,15.32
2022-11-05T16:01:31.724Z,16.38
2022-11-05T16:04:09.643Z,16.52
2022-11-05T16:06:39.912Z,17.25
2022-11-05T16:09:08.707Z,17.98
2022-11-05T16:11:36.738Z,15.40
2022-11-05T16:14:16.025Z,18.77
2022-11-05T16:16:45.923Z,16.63
2022-11-05T16:19:40.104Z,18.15
2022-11-05T16:22:09.070Z,18.08
2022-11-05T16:24:36.992Z,20.83
2022-11-05T16:27:07.140Z,18.77
2022-11-05T16:29:37.189Z,18.77
2022-11-05T16:32:15.717Z,22.23
2022-11-05T16:34:48.355Z,19.35
2022-11-05T16:37:18.959Z,18.48
2022-11-05T16:39:46.845Z,18.13
2022-11-05T16:42:41.816Z,17.75
2022-11-05T16:45:14.763Z,21.70
2022-11-05T16:47:45.434Z,24.45
2022-11-05T16:50:22.589Z,16.00
2022-11-05T16:52:50.696Z,19.38
2022-11-05T16:55:19.183Z,22.60
2022-11-05T16:57:50.716Z,18.58
2022-11-05T17:00:20.098Z,17.33
2022-11-05T17:02:50.255Z,17.23
2022-11-05T17:05:21.596Z,18.55
2022-11-05T17:07:49.503Z,20.50
2022-11-05T17:10:17.601Z,18.17
2022-11-05T17:12:46.099Z,18.23
2022-11-05T17:15:26.067Z,16.90
2022-11-05T17:17:56.427Z,20.88
2022-11-05T17:20:32.538Z,21.75
2022-11-05T17:23:04.728Z,19.65
2022-11-05T17:25:33.138Z,24.45
2022-11-05T17:28:01.167Z,23.85
2022-11-05T17:30:29.308Z,17.52
2022-11-05T17:32:58.559Z,21.73
2022-11-05T17:35:27.165Z,21.33
2022-11-05T17:37:55.043Z,21.10
2022-11-05T17:40:24.014Z,14.50
2022-11-05T17:42:53.091Z,16.98
2022-11-05T17:45:21.032Z,19.30
2022-11-05T17:47:48.962Z,16.73
2022-11-05T17:50:23.105Z,17.15
2022-11-05T17:52:52.818Z,16.83
2022-11-05T17:55:21.972Z,18.10
2022-11-05T17:57:52.643Z,18.00
2022-11-05T18:00:22.506Z,18.10
2022-11-05T18:02:55.268Z,18.88
2022-11-05T18:05:27.817Z,18.25
2022-11-05T18:07:58.115Z,18.88
2022-11-05T18:10:26.348Z,17.25
2022-11-05T18:12:54.336Z,16.65
2022-11-05T18:15:25.001Z,14.98
2022-11-05T18:17:53.061Z,16.63
2022-11-05T18:20:21.453Z,16.80
2022-11-05T18:22:52.113Z,18.25
2022-11-05T18:25:20.280Z,16.40
2022-11-05T18:27:48.208Z,16.27
2022-11-05T18:30:16.628Z,14.93
2022-11-05T18:32:48.478Z,16.83
2022-11-05T18:35:18.342Z,14.98
2022-11-05T18:37:46.732Z,13.68
2022-11-05T18:40:16.007Z,12.90
2022-11-05T18:42:43.941Z,15.52
2022-11-05T18:45:12.765Z,17.15
2022-11-05T18:47:41.121Z,13.40
2022-11-05T18:50:10.604Z,12.35
2022-11-05T18:52:38.574Z,16.40
2022-11-05T18:55:07.658Z,11.13
2022-11-05T18:57:37.311Z,14.02
2022-11-05T19:00:06.216Z,10.93
2022-11-05T19:02:34.302Z,14.65
2022-11-05T19:07:50.344Z,10.70
2022-11-05T19:10:18.737Z,15.63
2022-11-05T19:12:48.002Z,10.80
2022-11-05T19:15:15.915Z,14.18
2022-11-05T19:17:44.097Z,14.90
2022-11-05T19:20:13.071Z,14.00
2022-11-05T19:22:41.083Z,10.63
2022-11-05T19:25:09.478Z,11.70
2022-11-05T19:27:38.616Z,11.18
2022-11-05T19:30:09.013Z,12.52
2022-11-05T19:32:37.160Z,12.98
2022-11-05T19:35:05.576Z,13.35
2022-11-05T19:37:33.497Z,11.75
2022-11-05T19:40:01.579Z,15.30
2022-11-05T19:42:29.556Z,12.20
2022-11-05T19:45:06.838Z,14.65
2022-11-05T19:47:46.329Z,14.73
2022-11-05T19:50:14.273Z,13.60
2022-11-05T19:52:42.309Z,14.48
2022-11-05T19:55:12.293Z,11.68
2022-11-05T19:57:40.391Z,10.45
2022-11-05T20:00:09.699Z,14.80
2022-11-05T20:02:37.748Z,12.80
2022-11-05T20:05:07.506Z,13.18
2022-11-05T20:07:35.410Z,15.00
2022-11-05T20:10:03.375Z,13.05
2022-11-05T20:12:31.324Z,17.30
2022-11-05T20:14:59.246Z,13.70
2022-11-05T20:17:27.282Z,10.68
2022-11-05T20:19:58.088Z,15.63
2022-11-05T20:22:27.686Z,16.27
2022-11-05T20:24:55.589Z,10.30
2022-11-05T20:27:23.541Z,12.85
2022-11-05T20:29:51.461Z,13.40
2022-11-05T20:32:19.362Z,13.57
2022-11-05T20:34:47.449Z,13.25
2022-11-05T20:37:15.478Z,12.77
2022-11-05T20:39:47.990Z,13.65
2022-11-05T20:42:15.977Z,12.60
2022-11-05T20:44:43.949Z,15.05
2022-11-05T20:47:12.035Z,15.15
2022-11-05T20:49:39.965Z,14.07
2022-11-05T20:52:08.006Z,10.70
2022-11-05T20:54:35.990Z,12.13
2022-11-05T20:57:05.418Z,12.80
2022-11-05T20:59:33.450Z,13.40
2022-11-05T21:02:01.641Z,15.68
2022-11-05T21:04:29.898Z,12.05
2022-11-05T21:06:57.818Z,13.50
2022-11-05T21:09:25.712Z,14.43
2022-11-05T21:12:11.566Z,12.27
2022-11-05T21:14:42.693Z,12.27
2022-11-05T21:17:12.868Z,11.52
2022-11-05T21:19:40.887Z,14.57
2022-11-05T21:22:15.188Z,15.57
2022-11-05T21:24:44.092Z,13.93
2022-11-05T21:27:12.025Z,17.70
2022-11-05T21:29:41.386Z,15.38
2022-11-05T21:32:09.351Z,11.98
2022-11-05T21:34:37.426Z,15.40
2022-11-05T21:37:06.048Z,14.95
2022-11-05T21:39:34.948Z,13.93
2022-11-05T21:42:03.236Z,15.40
2022-11-05T21:44:31.236Z,14.30
2022-11-05T21:47:00.777Z,13.82
2022-11-05T21:49:28.671Z,15.18
2022-11-05T21:52:14.115Z,15.30
2022-11-05T21:54:59.798Z,12.88
2022-11-05T21:57:45.257Z,13.07
2022-11-05T22:00:14.386Z,13.98
2022-11-05T22:02:43.811Z,13.98
2022-11-05T22:05:11.965Z,17.77
2022-11-05T22:07:41.040Z,11.07
2022-11-05T22:10:16.327Z,10.98
2022-11-05T22:12:45.139Z,14.82
2022-11-05T22:15:13.648Z,14.35
2022-11-05T22:17:46.944Z,13.55
2022-11-05T22:20:15.770Z,18.40
2022-11-05T22:22:43.998Z,14.70
2022-11-05T22:25:12.863Z,14.68
2022-11-05T22:27:40.945Z,17.27
2022-11-05T22:30:09.726Z,17.48
2022-11-05T22:32:39.090Z,12.90
2022-11-05T22:35:09.636Z,15.90
2022-11-05T22:37:37.824Z,14.18
2022-11-05T22:40:06.535Z,16.38
2022-11-05T22:42:34.531Z,19.55
2022-11-05T22:45:02.570Z,16.48
2022-11-05T22:47:32.803Z,15.57
2022-11-05T22:50:00.662Z,15.63
2022-11-05T22:52:30.058Z,16.42
2022-11-05T22:54:58.004Z,17.70
2022-11-05T22:57:26.090Z,15.88
2022-11-05T22:59:54.005Z,17.45
2022-11-05T23:02:22.384Z,15.73
2022-11-05T23:04:52.645Z,17.58
2022-11-05T23:07:40.641Z,19.08
2022-11-05T23:10:28.649Z,18.50
2022-11-05T23:12:57.225Z,15.63
2022-11-05T23:15:41.782Z,17.80
2022-11-05T23:18:27.750Z,16.70
2022-11-05T23:21:13.216Z,17.92
2022-11-05T23:24:01.846Z,19.83
2022-11-05T23:26:51.586Z,20.48
2022-11-05T23:29:20.771Z,15.10
2022-11-05T23:32:06.140Z,16.25
2022-11-05T23:34:34.434Z,14.55
2022-11-05T23:37:20.113Z,19.38
2022-11-05T23:39:48.058Z,16.02
2022-11-05T23:42:35.312Z,13.95
2022-11-05T23:45:29.324Z,19.75
2022-11-05T23:48:15.063Z,14.50
2022-11-05T23:50:44.521Z,15.38
2022-11-05T23:53:12.446Z,16.83
2022-11-05T23:55:40.884Z,17.60
2022-11-05T23:58:11.334Z,20.50
